Time;durP1;ratioP1;P1;durP2;ratioP2;P2;SDS_P1;SDS_P2;PMS_P1;PMS_P2;Temp;Humidity;BMP_temperature;BMP_pressure;BME280_temperature;BME280_humidity;BME280_pressure;Samples;Min_cycle;Max_cycle;Signal;HPM_P1;HPM_P2
2021/11/08 00:00:29;;;;;;;16.20;11.50;;;;;;;;;;5072317;28;20480;-65
2021/11/08 00:02:57;;;;;;;14.33;10.50;;;;;;;;;;5072177;28;20535;-65
2021/11/08 00:05:24;;;;;;;13.07;9.60;;;;;;;;;;5071809;28;20936;-65
2021/11/08 00:07:54;;;;;;;12.53;9.47;;;;;;;;;;5071006;28;20432;-65
2021/11/08 00:10:27;;;;;;;17.33;11.50;;;;;;;;;;5072309;28;20448;-65
2021/11/08 00:12:53;;;;;;;10.80;9.47;;;;;;;;;;5075767;28;20385;-65
2021/11/08 00:15:24;;;;;;;14.50;10.87;;;;;;;;;;5063766;28;20505;-65
2021/11/08 00:17:59;;;;;;;16.10;10.40;;;;;;;;;;5054390;28;20436;-65
2021/11/08 00:20:28;;;;;;;13.57;9.87;;;;;;;;;;5055500;28;20420;-65
2021/11/08 00:22:54;;;;;;;13.00;10.00;;;;;;;;;;5055162;28;20461;-65
2021/11/08 00:25:21;;;;;;;13.43;10.97;;;;;;;;;;5055562;28;20429;-65
2021/11/08 00:27:47;;;;;;;15.10;10.90;;;;;;;;;;5073115;28;20425;-65
2021/11/08 00:30:13;;;;;;;14.60;10.37;;;;;;;;;;5075709;28;20413;-66
2021/11/08 00:32:40;;;;;;;14.33;10.63;;;;;;;;;;5070246;28;20420;-65
2021/11/08 00:35:06;;;;;;;15.90;10.23;;;;;;;;;;5074900;28;20424;-65
2021/11/08 00:37:33;;;;;;;12.73;9.80;;;;;;;;;;5075309;28;20421;-65
2021/11/08 00:39:59;;;;;;;16.37;9.60;;;;;;;;;;5075193;28;20405;-65
2021/11/08 00:42:28;;;;;;;14.83;11.50;;;;;;;;;;5075148;28;20780;-65
2021/11/08 00:44:55;;;;;;;17.97;10.50;;;;;;;;;;5075488;28;20768;-65
2021/11/08 00:47:21;;;;;;;14.43;10.13;;;;;;;;;;5074836;28;20447;-65
2021/11/08 00:49:48;;;;;;;13.30;10.43;;;;;;;;;;5074944;28;20481;-65
2021/11/08 00:52:14;;;;;;;13.47;10.17;;;;;;;;;;5074861;28;20400;-65
2021/11/08 00:54:41;;;;;;;14.30;11.20;;;;;;;;;;5074895;28;20412;-65
2021/11/08 00:57:11;;;;;;;14.47;10.47;;;;;;;;;;5059759;28;20438;-65
2021/11/08 00:59:37;;;;;;;13.07;9.80;;;;;;;;;;5055072;28;20533;-65
2021/11/08 01:02:04;;;;;;;13.00;9.97;;;;;;;;;;5055161;28;20836;-65
2021/11/08 01:04:30;;;;;;;13.90;11.00;;;;;;;;;;5061264;28;20452;-65
2021/11/08 01:07:00;;;;;;;14.57;10.20;;;;;;;;;;5074539;28;20515;-65
2021/11/08 01:09:28;;;;;;;13.03;9.70;;;;;;;;;;5074975;28;20404;-65
2021/11/08 01:11:54;;;;;;;13.87;10.57;;;;;;;;;;5074849;28;20428;-68
2021/11/08 01:14:20;;;;;;;13.10;11.20;;;;;;;;;;5082135;22;20409;-61
2021/11/08 01:16:46;;;;;;;15.60;10.50;;;;;;;;;;5064204;28;20482;-62
2021/11/08 01:19:14;;;;;;;14.83;11.10;;;;;;;;;;5074810;28;20430;-63
2021/11/08 01:21:41;;;;;;;14.90;11.70;;;;;;;;;;5063046;28;20488;-62
2021/11/08 01:24:07;;;;;;;16.47;10.97;;;;;;;;;;5054890;28;20503;-61
2021/11/08 01:26:34;;;;;;;16.10;11.03;;;;;;;;;;5073380;28;20411;-62
2021/11/08 01:29:00;;;;;;;14.67;10.93;;;;;;;;;;5069120;28;20436;-62
2021/11/08 01:31:26;;;;;;;16.10;10.80;;;;;;;;;;5055457;28;20830;-62
2021/11/08 01:33:53;;;;;;;13.40;9.60;;;;;;;;;;5074735;28;20894;-62
2021/11/08 01:36:32;;;;;;;12.97;10.03;;;;;;;;;;5074968;28;20439;-62
2021/11/08 01:39:12;;;;;;;14.00;10.00;;;;;;;;;;5075226;28;20405;-61
2021/11/08 01:41:39;;;;;;;11.33;9.13;;;;;;;;;;5075277;28;20392;-62
2021/11/08 01:44:05;;;;;;;13.03;10.40;;;;;;;;;;5075718;28;20928;-62
2021/11/08 01:46:31;;;;;;;12.50;10.40;;;;;;;;;;5074755;28;20877;-61
2021/11/08 01:48:57;;;;;;;13.90;10.37;;;;;;;;;;5075483;28;20756;-61
2021/11/08 01:51:23;;;;;;;15.20;9.77;;;;;;;;;;5075422;28;20444;-61
2021/11/08 01:53:49;;;;;;;17.10;10.87;;;;;;;;;;5074594;28;20417;-62
2021/11/08 01:56:16;;;;;;;14.53;11.00;;;;;;;;;;5074240;28;20535;-63
2021/11/08 01:58:42;;;;;;;16.93;10.93;;;;;;;;;;5074175;28;20419;-62
2021/11/08 02:01:09;;;;;;;15.90;9.23;;;;;;;;;;5073969;28;20421;-62
2021/11/08 02:03:35;;;;;;;14.43;10.17;;;;;;;;;;5073871;28;20544;-62
2021/11/08 02:06:01;;;;;;;16.73;10.80;;;;;;;;;;5073723;28;20437;-62
2021/11/08 02:08:28;;;;;;;17.60;12.47;;;;;;;;;;5073620;28;20499;-62
2021/11/08 02:10:55;;;;;;;16.67;11.97;;;;;;;;;;5072756;28;20453;-62
2021/11/08 02:13:22;;;;;;;19.90;13.30;;;;;;;;;;5073728;28;20458;-62
2021/11/08 02:15:48;;;;;;;16.63;12.17;;;;;;;;;;5067141;28;20535;-62
2021/11/08 02:18:15;;;;;;;15.80;11.93;;;;;;;;;;5066349;28;20409;-62
2021/11/08 02:20:43;;;;;;;17.77;12.20;;;;;;;;;;5069040;28;20865;-61
2021/11/08 02:23:10;;;;;;;17.37;12.27;;;;;;;;;;5053471;28;20445;-61
2021/11/08 02:25:38;;;;;;;18.77;13.30;;;;;;;;;;5053795;28;20429;-60
2021/11/08 02:28:07;;;;;;;16.23;12.00;;;;;;;;;;5053456;28;20455;-61
2021/11/08 02:30:36;;;;;;;15.67;11.07;;;;;;;;;;5056374;28;20446;-60
2021/11/08 02:33:02;;;;;;;17.30;11.80;;;;;;;;;;5073612;28;20405;-61
2021/11/08 02:35:29;;;;;;;17.87;13.20;;;;;;;;;;5073256;28;20439;-61
2021/11/08 02:37:56;;;;;;;21.30;12.97;;;;;;;;;;5073952;28;20740;-61
2021/11/08 02:40:25;;;;;;;15.87;11.43;;;;;;;;;;5073336;28;20400;-62
2021/11/08 02:42:55;;;;;;;17.47;12.43;;;;;;;;;;5072880;28;20976;-60
2021/11/08 02:45:24;;;;;;;19.70;12.90;;;;;;;;;;5073110;28;20452;-61
2021/11/08 02:47:51;;;;;;;14.13;10.47;;;;;;;;;;5073136;28;20393;-60
2021/11/08 02:50:18;;;;;;;17.70;11.20;;;;;;;;;;5073443;28;20397;-61
2021/11/08 02:52:45;;;;;;;18.80;11.30;;;;;;;;;;5061259;28;20956;-63
2021/11/08 02:55:12;;;;;;;15.83;11.33;;;;;;;;;;5053018;28;20455;-61
2021/11/08 02:57:39;;;;;;;17.30;11.70;;;;;;;;;;5053368;28;20398;-61
2021/11/08 03:00:05;;;;;;;19.10;10.83;;;;;;;;;;5051969;28;20417;-61
2021/11/08 03:02:34;;;;;;;15.90;10.60;;;;;;;;;;5062580;28;20417;-61
2021/11/08 03:05:01;;;;;;;16.60;10.80;;;;;;;;;;5072897;28;20456;-61
2021/11/08 03:07:30;;;;;;;16.70;11.70;;;;;;;;;;5073232;28;20401;-61
2021/11/08 03:09:59;;;;;;;15.27;10.87;;;;;;;;;;5073262;28;20458;-61
2021/11/08 03:12:29;;;;;;;18.30;10.90;;;;;;;;;;5073035;28;20466;-61
2021/11/08 03:17:34;;;;;;;16.10;11.03;;;;;;;;;;5071924;28;20488;-61
2021/11/08 03:20:01;;;;;;;17.27;11.43;;;;;;;;;;5055010;28;20390;-61
2021/11/08 03:22:31;;;;;;;15.83;11.40;;;;;;;;;;5071917;28;20527;-61
2021/11/08 03:27:51;;;;;;;14.67;11.00;;;;;;;;;;5073079;28;20872;-61
2021/11/08 03:30:20;;;;;;;13.73;11.23;;;;;;;;;;5073148;28;20381;-61
2021/11/08 03:32:47;;;;;;;20.83;12.33;;;;;;;;;;5073020;28;20550;-63
2021/11/08 03:35:15;;;;;;;14.30;11.00;;;;;;;;;;5072704;28;20408;-61
2021/11/08 03:37:42;;;;;;;16.07;11.40;;;;;;;;;;5072973;28;20400;-62
2021/11/08 03:40:28;;;;;;;14.77;11.00;;;;;;;;;;5072945;28;20462;-61
2021/11/08 03:42:55;;;;;;;15.70;11.40;;;;;;;;;;5072330;28;20432;-61
2021/11/08 03:45:22;;;;;;;15.53;10.53;;;;;;;;;;5072860;28;20978;-61
2021/11/08 03:47:48;;;;;;;15.73;11.10;;;;;;;;;;5066580;28;20843;-61
2021/11/08 03:50:14;;;;;;;15.57;11.03;;;;;;;;;;5072798;28;20496;-61
2021/11/08 03:52:41;;;;;;;24.30;11.90;;;;;;;;;;5074496;28;20474;-60
2021/11/08 03:55:11;;;;;;;15.00;10.90;;;;;;;;;;5076158;28;20987;-61
2021/11/08 03:57:38;;;;;;;15.67;11.10;;;;;;;;;;5076318;28;20381;-60
2021/11/08 04:00:08;;;;;;;17.13;11.23;;;;;;;;;;5076253;28;20460;-60
2021/11/08 04:02:34;;;;;;;16.73;10.93;;;;;;;;;;5075613;28;20420;-61
2021/11/08 04:05:01;;;;;;;14.30;11.53;;;;;;;;;;5076088;28;20420;-63
2021/11/08 04:07:27;;;;;;;13.17;10.30;;;;;;;;;;5076335;28;20435;-62
2021/11/08 04:09:55;;;;;;;15.67;10.53;;;;;;;;;;5076146;28;20885;-62
2021/11/08 04:12:22;;;;;;;15.80;11.07;;;;;;;;;;5076004;28;20772;-62
2021/11/08 04:14:49;;;;;;;16.10;11.30;;;;;;;;;;5076065;28;20441;-61
2021/11/08 04:17:15;;;;;;;20.33;11.50;;;;;;;;;;5061216;28;20770;-60
2021/11/08 04:19:42;;;;;;;13.37;10.30;;;;;;;;;;5056184;28;20765;-61
2021/11/08 04:22:08;;;;;;;13.63;10.17;;;;;;;;;;5064768;28;20409;-63
2021/11/08 04:24:34;;;;;;;15.73;10.53;;;;;;;;;;5075540;28;20451;-61
2021/11/08 04:27:01;;;;;;;18.60;12.43;;;;;;;;;;5075695;28;20905;-60
2021/11/08 04:29:28;;;;;;;14.80;10.73;;;;;;;;;;5075648;28;20401;-63
2021/11/08 04:31:54;;;;;;;17.27;11.17;;;;;;;;;;5070675;28;20429;-63
2021/11/08 04:34:30;;;;;;;17.73;11.70;;;;;;;;;;5055271;28;20911;-62
2021/11/08 04:37:12;;;;;;;19.23;11.87;;;;;;;;;;5056672;28;20808;-63
2021/11/08 04:42:36;;;;;;;15.47;12.53;;;;;;;;;;5075469;28;20910;-61
2021/11/08 04:55:45;;;;;;;16.33;11.47;;;;;;;;;;5055459;28;20426;-62
2021/11/08 05:28:39;;;;;;;15.50;10.83;;;;;;;;;;5075104;28;20873;-61
2021/11/08 05:31:06;;;;;;;16.37;10.40;;;;;;;;;;5073291;28;20409;-61
2021/11/08 05:33:32;;;;;;;16.07;10.47;;;;;;;;;;5074550;28;20413;-61
2021/11/08 05:35:58;;;;;;;18.40;12.37;;;;;;;;;;5057280;28;20430;-62
2021/11/08 05:38:25;;;;;;;17.20;11.80;;;;;;;;;;5054804;28;20406;-59
2021/11/08 05:40:51;;;;;;;18.80;11.40;;;;;;;;;;5070888;28;20432;-61
2021/11/08 05:43:17;;;;;;;20.77;12.83;;;;;;;;;;5073690;28;20456;-61
2021/11/08 05:45:43;;;;;;;18.87;13.13;;;;;;;;;;5057866;28;20793;-61
2021/11/08 05:48:10;;;;;;;15.73;11.67;;;;;;;;;;5053974;28;20402;-62
2021/11/08 05:50:38;;;;;;;19.70;11.90;;;;;;;;;;5054186;28;20448;-61
2021/11/08 05:53:08;;;;;;;19.73;11.40;;;;;;;;;;5068507;28;20498;-62
2021/11/08 05:58:41;;;;;;;18.50;12.10;;;;;;;;;;5074090;28;20473;-62
2021/11/08 06:50:38;;;;;;;29.67;14.20;;;;;;;;;;5073197;28;20381;-61
2021/11/08 06:53:06;;;;;;;29.10;14.70;;;;;;;;;;5073222;28;20397;-61
2021/11/08 06:55:33;;;;;;;20.93;13.40;;;;;;;;;;5073131;28;20437;-62
2021/11/08 06:58:04;;;;;;;16.97;12.97;;;;;;;;;;5073316;28;20412;-61
2021/11/08 07:00:31;;;;;;;17.20;13.07;;;;;;;;;;5073372;28;20930;-61
2021/11/08 07:02:57;;;;;;;22.83;14.70;;;;;;;;;;5056667;28;20453;-60
2021/11/08 07:05:23;;;;;;;23.23;15.33;;;;;;;;;;5063842;28;20460;-62
2021/11/08 07:07:49;;;;;;;21.93;12.87;;;;;;;;;;5073069;28;20917;-62
2021/11/08 07:10:20;;;;;;;20.07;13.70;;;;;;;;;;5072974;28;20491;-61
2021/11/08 07:12:46;;;;;;;20.70;13.77;;;;;;;;;;5072487;28;20418;-64
2021/11/08 07:15:12;;;;;;;21.90;13.60;;;;;;;;;;5072232;28;20455;-63
2021/11/08 07:17:38;;;;;;;20.93;13.77;;;;;;;;;;5075131;28;20472;-63
2021/11/08 07:20:05;;;;;;;20.80;13.77;;;;;;;;;;5074884;28;20405;-63
2021/11/08 07:22:31;;;;;;;19.50;13.53;;;;;;;;;;5075576;28;20845;-64
2021/11/08 07:24:57;;;;;;;21.00;13.70;;;;;;;;;;5074282;28;20478;-62
2021/11/08 07:27:24;;;;;;;18.37;11.80;;;;;;;;;;5075118;28;20484;-63
2021/11/08 07:29:51;;;;;;;20.23;11.60;;;;;;;;;;5058055;28;20734;-64
2021/11/08 07:32:17;;;;;;;18.00;12.37;;;;;;;;;;5061499;28;20413;-62
2021/11/08 07:34:44;;;;;;;19.87;11.83;;;;;;;;;;5065078;28;20437;-62
2021/11/08 07:37:10;;;;;;;20.50;12.07;;;;;;;;;;5065155;28;20431;-62
2021/11/08 07:39:36;;;;;;;22.67;11.50;;;;;;;;;;5075578;28;20830;-61
2021/11/08 07:42:02;;;;;;;16.80;9.77;;;;;;;;;;5073293;28;20442;-63
2021/11/08 07:44:28;;;;;;;16.47;10.87;;;;;;;;;;5063769;28;20556;-62
2021/11/08 07:46:54;;;;;;;18.50;10.17;;;;;;;;;;5064003;28;20413;-59
2021/11/08 07:49:20;;;;;;;14.07;10.20;;;;;;;;;;5075744;28;20912;-61
2021/11/08 07:51:47;;;;;;;20.63;10.57;;;;;;;;;;5075752;28;20944;-61
2021/11/08 07:54:13;;;;;;;15.77;10.93;;;;;;;;;;5074984;28;20412;-61
2021/11/08 07:56:39;;;;;;;15.57;10.50;;;;;;;;;;5076109;28;20433;-58
2021/11/08 07:59:05;;;;;;;16.07;9.53;;;;;;;;;;5072759;28;20425;-61
2021/11/08 08:01:31;;;;;;;18.83;9.17;;;;;;;;;;5075959;28;20916;-71
2021/11/08 08:03:57;;;;;;;15.50;8.87;;;;;;;;;;5075501;28;21016;-67
2021/11/08 08:06:23;;;;;;;19.00;9.00;;;;;;;;;;5062720;28;20807;-68
2021/11/08 08:08:51;;;;;;;14.70;9.60;;;;;;;;;;5057873;28;20410;-67
2021/11/08 08:11:18;;;;;;;12.30;8.37;;;;;;;;;;5068117;28;20783;-64
2021/11/08 08:13:44;;;;;;;13.00;7.97;;;;;;;;;;5069927;28;20424;-65
2021/11/08 08:16:13;;;;;;;18.70;9.40;;;;;;;;;;5074094;28;20448;-64
2021/11/08 08:18:40;;;;;;;9.37;8.13;;;;;;;;;;5071183;28;21029;-63
2021/11/08 08:21:07;;;;;;;16.63;8.53;;;;;;;;;;5067489;28;20491;-64
2021/11/08 08:23:33;;;;;;;14.53;9.27;;;;;;;;;;5067055;28;20489;-66
2021/11/08 08:26:00;;;;;;;10.63;7.93;;;;;;;;;;5070671;28;20973;-63
2021/11/08 08:28:26;;;;;;;19.83;8.67;;;;;;;;;;5072548;28;20478;-65
2021/11/08 08:30:52;;;;;;;17.67;8.77;;;;;;;;;;5066102;28;20451;-64
2021/11/08 08:33:19;;;;;;;15.90;11.70;;;;;;;;;;5072983;28;20425;-63
2021/11/08 08:35:45;;;;;;;15.43;8.07;;;;;;;;;;5072924;28;20456;-62
2021/11/08 08:38:14;;;;;;;20.50;8.50;;;;;;;;;;5073697;28;20447;-62
2021/11/08 08:40:40;;;;;;;22.33;8.17;;;;;;;;;;5073950;28;20435;-62
2021/11/08 08:43:06;;;;;;;17.23;8.60;;;;;;;;;;5074444;28;20948;-64
2021/11/08 08:45:33;;;;;;;12.63;6.80;;;;;;;;;;5072159;28;20425;-64
2021/11/08 08:47:59;;;;;;;9.43;6.10;;;;;;;;;;5069795;28;20409;-64
2021/11/08 08:50:26;;;;;;;14.50;6.57;;;;;;;;;;5066370;28;20455;-63
2021/11/08 08:52:52;;;;;;;8.77;5.13;;;;;;;;;;5073570;28;20417;-61
2021/11/08 08:55:19;;;;;;;16.93;5.60;;;;;;;;;;5073066;28;20440;-61
2021/11/08 08:57:45;;;;;;;10.93;4.63;;;;;;;;;;5065750;28;20816;-61
2021/11/08 09:00:14;;;;;;;11.80;5.30;;;;;;;;;;5073938;28;20413;-64
2021/11/08 09:02:40;;;;;;;15.25;5.03;;;;;;;;;;5073679;28;20418;-64
2021/11/08 09:05:06;;;;;;;5.40;2.97;;;;;;;;;;5072544;28;20190;-67
2021/11/08 09:07:32;;;;;;;8.80;4.33;;;;;;;;;;5067888;28;20410;-62
2021/11/08 09:09:58;;;;;;;11.23;4.30;;;;;;;;;;5072446;28;20756;-62
2021/11/08 09:12:24;;;;;;;11.67;5.80;;;;;;;;;;5069453;28;20940;-63
2021/11/08 09:14:50;;;;;;;19.30;4.67;;;;;;;;;;5069923;28;20452;-63
2021/11/08 09:17:16;;;;;;;11.10;4.40;;;;;;;;;;5069077;28;20513;-69
2021/11/08 09:19:43;;;;;;;13.57;5.27;;;;;;;;;;5059550;28;20422;-64
2021/11/08 09:22:09;;;;;;;12.13;4.90;;;;;;;;;;5069854;28;20405;-69
2021/11/08 09:24:35;;;;;;;13.20;5.03;;;;;;;;;;5065479;28;20445;-68
2021/11/08 09:27:02;;;;;;;12.93;4.10;;;;;;;;;;5073596;28;20527;-71
2021/11/08 09:29:28;;;;;;;8.80;4.57;;;;;;;;;;5069799;28;20486;-71
2021/11/08 09:31:54;;;;;;;17.20;5.33;;;;;;;;;;5066508;28;20421;-73
2021/11/08 09:34:22;;;;;;;10.50;5.07;;;;;;;;;;5048346;28;20544;-71
2021/11/08 09:36:50;;;;;;;12.03;5.33;;;;;;;;;;5051058;28;20831;-71
2021/11/08 09:39:24;;;;;;;15.47;4.43;;;;;;;;;;5071405;28;20421;-68
2021/11/08 09:41:51;;;;;;;9.63;4.30;;;;;;;;;;5071750;28;20416;-69
2021/11/08 09:44:17;;;;;;;12.50;4.20;;;;;;;;;;5066543;28;20795;-67
2021/11/08 09:46:43;;;;;;;9.30;5.03;;;;;;;;;;5067136;28;21035;-68
2021/11/08 09:49:10;;;;;;;14.73;4.57;;;;;;;;;;5069157;28;20405;-69
2021/11/08 09:51:40;;;;;;;16.43;4.90;;;;;;;;;;5069249;28;20414;-68
2021/11/08 09:54:07;;;;;;;14.40;5.30;;;;;;;;;;5065347;28;20880;-64
2021/11/08 09:56:33;;;;;;;11.57;5.13;;;;;;;;;;5069392;28;20893;-65
2021/11/08 09:59:01;;;;;;;8.47;5.10;;;;;;;;;;5072101;28;20452;-62
2021/11/08 10:01:27;;;;;;;11.70;5.83;;;;;;;;;;5073435;28;20413;-62
2021/11/08 10:03:55;;;;;;;11.93;4.50;;;;;;;;;;5071539;28;20451;-62
2021/11/08 10:06:21;;;;;;;8.03;4.40;;;;;;;;;;5070975;28;20959;-62
2021/11/08 10:08:48;;;;;;;11.17;5.03;;;;;;;;;;5072360;28;20455;-61
2021/11/08 10:11:16;;;;;;;17.57;4.13;;;;;;;;;;5066695;28;20412;-62
2021/11/08 10:13:43;;;;;;;10.33;4.40;;;;;;;;;;5070655;28;20913;-67
2021/11/08 10:16:10;;;;;;;8.77;4.40;;;;;;;;;;5068262;28;20491;-65
2021/11/08 10:18:37;;;;;;;11.07;4.10;;;;;;;;;;5069225;28;20424;-64
2021/11/08 10:21:06;;;;;;;11.47;4.93;;;;;;;;;;5071525;28;20195;-63
2021/11/08 10:23:32;;;;;;;11.33;4.30;;;;;;;;;;5070788;28;20504;-63
2021/11/08 10:25:58;;;;;;;11.43;4.97;;;;;;;;;;5070706;28;20468;-68
2021/11/08 10:28:25;;;;;;;21.40;4.87;;;;;;;;;;5066654;28;20405;-65
2021/11/08 10:30:56;;;;;;;9.53;3.70;;;;;;;;;;5067222;28;20463;-64
2021/11/08 10:33:25;;;;;;;8.70;3.37;;;;;;;;;;5066904;28;20507;-63
2021/11/08 10:35:52;;;;;;;7.93;3.60;;;;;;;;;;5064632;28;20874;-63
2021/11/08 10:38:20;;;;;;;11.63;4.13;;;;;;;;;;5063709;28;20417;-63
2021/11/08 10:40:51;;;;;;;8.33;3.87;;;;;;;;;;5067289;28;20932;-63
2021/11/08 10:43:23;;;;;;;10.10;3.57;;;;;;;;;;5065477;28;20547;-62
2021/11/08 10:45:51;;;;;;;11.67;5.20;;;;;;;;;;5067744;28;20961;-63
2021/11/08 10:48:24;;;;;;;9.10;5.17;;;;;;;;;;5062674;28;20427;-63
2021/11/08 10:50:52;;;;;;;13.03;4.70;;;;;;;;;;5067793;28;20416;-63
2021/11/08 10:53:19;;;;;;;12.90;4.87;;;;;;;;;;5068369;28;20413;-62
2021/11/08 10:55:53;;;;;;;19.00;6.03;;;;;;;;;;5064388;28;21064;-62
2021/11/08 10:58:20;;;;;;;17.70;5.83;;;;;;;;;;5064552;28;20413;-63
2021/11/08 11:00:48;;;;;;;13.57;5.53;;;;;;;;;;5067173;28;20413;-62
2021/11/08 11:03:18;;;;;;;14.37;5.37;;;;;;;;;;5066742;28;20460;-63
2021/11/08 11:05:45;;;;;;;12.13;4.20;;;;;;;;;;5064569;28;20437;-64
2021/11/08 11:08:14;;;;;;;14.97;5.80;;;;;;;;;;5063738;28;20409;-63
2021/11/08 11:10:51;;;;;;;14.00;6.37;;;;;;;;;;5066401;28;20501;-64
2021/11/08 11:13:19;;;;;;;15.37;7.07;;;;;;;;;;5065118;28;20431;-63
2021/11/08 11:15:45;;;;;;;13.63;5.40;;;;;;;;;;5071296;28;20456;-63
2021/11/08 11:18:13;;;;;;;13.40;4.60;;;;;;;;;;5068336;28;20413;-63
2021/11/08 11:20:43;;;;;;;18.20;5.47;;;;;;;;;;5052999;28;20488;-63
2021/11/08 11:23:21;;;;;;;14.37;4.63;;;;;;;;;;5057539;28;20479;-61
2021/11/08 11:25:52;;;;;;;11.47;5.23;;;;;;;;;;5068408;28;20436;-64
2021/11/08 11:28:30;;;;;;;11.33;4.00;;;;;;;;;;5068646;28;20402;-63
2021/11/08 11:30:56;;;;;;;13.30;4.40;;;;;;;;;;5071091;28;20440;-63
2021/11/08 11:33:24;;;;;;;19.17;5.07;;;;;;;;;;5068942;28;20436;-63
2021/11/08 11:35:55;;;;;;;16.20;4.90;;;;;;;;;;5061885;28;20445;-64
2021/11/08 11:38:30;;;;;;;18.63;5.97;;;;;;;;;;5068042;28;20518;-64
2021/11/08 11:41:05;;;;;;;11.90;5.30;;;;;;;;;;5064217;28;20420;-63
2021/11/08 11:43:33;;;;;;;10.67;5.70;;;;;;;;;;5065672;28;20514;-64
2021/11/08 11:45:59;;;;;;;19.17;6.90;;;;;;;;;;5069109;28;20433;-64
2021/11/08 11:48:28;;;;;;;14.73;4.87;;;;;;;;;;5070588;28;20965;-61
2021/11/08 11:50:54;;;;;;;21.10;7.10;;;;;;;;;;5067889;28;20952;-62
2021/11/08 11:53:21;;;;;;;16.80;4.97;;;;;;;;;;5069359;28;20473;-61
2021/11/08 11:55:47;;;;;;;19.93;4.70;;;;;;;;;;5059975;28;20429;-62
2021/11/08 11:58:14;;;;;;;10.93;4.03;;;;;;;;;;5067263;28;20441;-62
2021/11/08 12:00:42;;;;;;;15.47;5.47;;;;;;;;;;5070031;28;20504;-63
2021/11/08 12:03:08;;;;;;;13.40;4.60;;;;;;;;;;5062995;28;20813;-61
2021/11/08 12:05:35;;;;;;;17.93;4.83;;;;;;;;;;5069320;28;20772;-63
2021/11/08 12:08:04;;;;;;;10.57;4.13;;;;;;;;;;5070363;28;20418;-63
2021/11/08 12:10:31;;;;;;;10.40;4.07;;;;;;;;;;5073100;28;20411;-63
2021/11/08 12:12:57;;;;;;;11.23;4.90;;;;;;;;;;5069233;28;20842;-63
2021/11/08 12:15:30;;;;;;;9.30;3.90;;;;;;;;;;5071535;28;20448;-63
2021/11/08 12:18:03;;;;;;;15.20;4.83;;;;;;;;;;5071636;28;20415;-63
2021/11/08 12:20:30;;;;;;;9.17;4.00;;;;;;;;;;5064303;28;20800;-63
2021/11/08 12:22:56;;;;;;;14.23;5.03;;;;;;;;;;5072100;28;20495;-62
2021/11/08 12:25:23;;;;;;;9.30;3.93;;;;;;;;;;5066473;28;20925;-62
2021/11/08 12:27:51;;;;;;;5.47;3.30;;;;;;;;;;5070014;28;20436;-63
2021/11/08 12:30:18;;;;;;;10.60;4.77;;;;;;;;;;5073000;28;20401;-63
2021/11/08 12:32:46;;;;;;;7.90;4.17;;;;;;;;;;5066210;28;20424;-62
2021/11/08 12:35:16;;;;;;;7.43;3.50;;;;;;;;;;5069552;28;20463;-63
2021/11/08 12:37:42;;;;;;;9.03;3.50;;;;;;;;;;5069494;28;20846;-63
2021/11/08 12:40:08;;;;;;;5.67;3.50;;;;;;;;;;5064758;28;20445;-61
2021/11/08 12:42:45;;;;;;;9.60;3.47;;;;;;;;;;5074131;28;20405;-61
2021/11/08 12:45:18;;;;;;;10.83;3.27;;;;;;;;;;5066356;28;20532;-62
2021/11/08 12:47:44;;;;;;;7.17;3.23;;;;;;;;;;5068546;28;21032;-64
2021/11/08 12:50:10;;;;;;;12.23;4.17;;;;;;;;;;5067766;28;20998;-59
2021/11/08 12:52:41;;;;;;;11.43;4.37;;;;;;;;;;5070855;28;20992;-60
2021/11/08 12:55:10;;;;;;;7.40;3.07;;;;;;;;;;5073701;28;20413;-64
2021/11/08 12:57:37;;;;;;;9.87;4.40;;;;;;;;;;5071315;28;20448;-67
2021/11/08 13:00:03;;;;;;;8.93;4.10;;;;;;;;;;5069976;28;20417;-67
2021/11/08 13:02:33;;;;;;;9.03;3.77;;;;;;;;;;5067126;28;20771;-69
2021/11/08 13:05:02;;;;;;;10.63;3.30;;;;;;;;;;5068050;28;20499;-68
2021/11/08 13:07:29;;;;;;;11.73;4.17;;;;;;;;;;5065858;28;20552;-69
2021/11/08 13:09:57;;;;;;;6.17;2.80;;;;;;;;;;5069087;28;20436;-68
2021/11/08 13:12:23;;;;;;;9.80;3.13;;;;;;;;;;5067732;28;20416;-67
2021/11/08 13:15:09;;;;;;;14.67;3.77;;;;;;;;;;5071051;28;20956;-67
2021/11/08 13:17:46;;;;;;;8.23;3.10;;;;;;;;;;5060138;28;20928;-68
2021/11/08 13:20:13;;;;;;;7.20;3.40;;;;;;;;;;5069901;28;21211;-68
2021/11/08 13:22:41;;;;;;;13.80;3.87;;;;;;;;;;5072242;28;20793;-67
2021/11/08 13:25:13;;;;;;;8.50;3.60;;;;;;;;;;5073535;28;20425;-69
2021/11/08 13:27:44;;;;;;;16.70;3.60;;;;;;;;;;5070057;28;20411;-69
2021/11/08 13:30:10;;;;;;;6.87;2.77;;;;;;;;;;5066743;28;20401;-68
2021/11/08 13:32:37;;;;;;;7.47;3.00;;;;;;;;;;5068020;28;20412;-69
2021/11/08 13:35:26;;;;;;;10.00;3.30;;;;;;;;;;5062024;28;20436;-72
2021/11/08 13:38:04;;;;;;;7.93;3.13;;;;;;;;;;5063420;28;20413;-71
2021/11/08 13:40:31;;;;;;;11.03;4.20;;;;;;;;;;5063962;28;20425;-69
2021/11/08 13:43:12;;;;;;;10.02;4.03;;;;;;;;;;5071069;28;20430;-65
2021/11/08 13:45:56;;;;;;;8.43;3.10;;;;;;;;;;5067173;28;20190;-63
2021/11/08 13:48:24;;;;;;;10.88;3.72;;;;;;;;;;5068951;28;20402;-64
2021/11/08 13:50:51;;;;;;;13.23;3.70;;;;;;;;;;5073143;28;20170;-63
2021/11/08 13:53:25;;;;;;;6.93;2.90;;;;;;;;;;5066962;28;20436;-67
2021/11/08 13:55:54;;;;;;;9.73;3.40;;;;;;;;;;5066271;28;20788;-67
2021/11/08 13:58:20;;;;;;;10.07;3.50;;;;;;;;;;5069443;28;20458;-67
2021/11/08 14:00:47;;;;;;;6.93;3.60;;;;;;;;;;5065003;28;20170;-67
2021/11/08 14:03:14;;;;;;;11.55;3.90;;;;;;;;;;5069279;28;20461;-66
2021/11/08 14:05:50;;;;;;;9.20;3.40;;;;;;;;;;5068404;28;20202;-62
2021/11/08 14:08:23;;;;;;;10.93;3.10;;;;;;;;;;5066722;28;20408;-63
2021/11/08 14:10:51;;;;;;;9.13;3.60;;;;;;;;;;5059284;28;20410;-62
2021/11/08 14:13:17;;;;;;;7.80;3.00;;;;;;;;;;5064612;28;20416;-62
2021/11/08 14:15:43;;;;;;;9.10;4.60;;;;;;;;;;5066559;28;20483;-62
2021/11/08 14:18:18;;;;;;;11.30;3.70;;;;;;;;;;5069656;28;20463;-66
2021/11/08 14:20:45;;;;;;;8.63;3.23;;;;;;;;;;5069903;28;20494;-64
2021/11/08 14:23:11;;;;;;;7.43;3.47;;;;;;;;;;5072734;28;20456;-66
2021/11/08 14:25:37;;;;;;;6.50;2.47;;;;;;;;;;5068463;28;20448;-67
2021/11/08 14:28:03;;;;;;;5.30;3.67;;;;;;;;;;5071104;28;20440;-65
2021/11/08 14:30:30;;;;;;;9.27;3.17;;;;;;;;;;5068712;28;20413;-65
2021/11/08 14:32:59;;;;;;;9.23;3.40;;;;;;;;;;5068995;28;20848;-70
2021/11/08 14:35:29;;;;;;;6.57;2.57;;;;;;;;;;5072206;28;20255;-70
2021/11/08 14:38:00;;;;;;;5.30;3.10;;;;;;;;;;5067992;28;20873;-70
2021/11/08 14:40:39;;;;;;;7.33;3.30;;;;;;;;;;5067361;28;20445;-67
2021/11/08 14:43:14;;;;;;;10.87;2.93;;;;;;;;;;5062470;28;20444;-67
2021/11/08 14:45:41;;;;;;;9.73;3.50;;;;;;;;;;5071121;28;20463;-65
2021/11/08 14:48:07;;;;;;;7.97;4.27;;;;;;;;;;5062324;28;20412;-65
2021/11/08 14:50:35;;;;;;;12.77;3.30;;;;;;;;;;5071874;28;20941;-65
2021/11/08 14:53:03;;;;;;;8.70;3.07;;;;;;;;;;5065362;28;20421;-67
2021/11/08 14:55:31;;;;;;;5.30;2.20;;;;;;;;;;5068451;28;20473;-66
2021/11/08 14:57:58;;;;;;;9.90;3.60;;;;;;;;;;5068131;28;20412;-67
2021/11/08 15:00:29;;;;;;;11.63;3.67;;;;;;;;;;5065693;28;20456;-67
2021/11/08 15:03:03;;;;;;;11.20;2.93;;;;;;;;;;5068699;28;20423;-67
2021/11/08 15:05:31;;;;;;;9.17;3.13;;;;;;;;;;5067838;28;20436;-67
2021/11/08 15:07:59;;;;;;;13.73;3.37;;;;;;;;;;5065718;28;20438;-66
2021/11/08 15:10:27;;;;;;;12.97;2.80;;;;;;;;;;5069258;28;20443;-63
2021/11/08 15:12:56;;;;;;;14.57;2.93;;;;;;;;;;5069165;28;20416;-65
2021/11/08 15:15:22;;;;;;;12.20;3.57;;;;;;;;;;5066487;28;20472;-63
2021/11/08 15:17:58;;;;;;;10.07;2.73;;;;;;;;;;5060404;28;20423;-69
2021/11/08 15:20:30;;;;;;;16.60;3.57;;;;;;;;;;5067358;28;20810;-70
2021/11/08 15:22:58;;;;;;;9.07;2.87;;;;;;;;;;5067050;28;20397;-65
2021/11/08 15:25:34;;;;;;;9.23;4.20;;;;;;;;;;5067011;28;20774;-65
2021/11/08 15:28:00;;;;;;;11.20;3.30;;;;;;;;;;5057848;28;20503;-65
2021/11/08 15:30:28;;;;;;;10.43;3.00;;;;;;;;;;5071190;28;20412;-65
2021/11/08 15:33:10;;;;;;;8.30;3.63;;;;;;;;;;5069418;28;20446;-65
2021/11/08 15:35:37;;;;;;;7.17;3.00;;;;;;;;;;5069645;28;20425;-66
2021/11/08 15:38:03;;;;;;;7.67;2.83;;;;;;;;;;5068397;28;20420;-67
2021/11/08 15:40:29;;;;;;;8.20;3.40;;;;;;;;;;5067821;28;20473;-62
2021/11/08 15:42:58;;;;;;;8.80;3.27;;;;;;;;;;5071598;28;21835;-62
2021/11/08 15:45:24;;;;;;;25.20;3.50;;;;;;;;;;5068208;28;22026;-63
2021/11/08 15:47:54;;;;;;;16.10;3.13;;;;;;;;;;5068788;28;20437;-66
2021/11/08 15:50:20;;;;;;;7.70;3.10;;;;;;;;;;5071727;28;20409;-66
2021/11/08 15:52:47;;;;;;;5.60;2.50;;;;;;;;;;5071977;28;20412;-66
2021/11/08 15:55:13;;;;;;;9.43;4.03;;;;;;;;;;5072118;28;20435;-70
2021/11/08 15:57:39;;;;;;;14.40;3.50;;;;;;;;;;5073350;28;21830;-71
2021/11/08 16:00:06;;;;;;;14.20;3.00;;;;;;;;;;5067319;28;20451;-69
2021/11/08 16:02:36;;;;;;;7.63;3.10;;;;;;;;;;5067709;28;20490;-68
2021/11/08 16:05:03;;;;;;;10.80;3.60;;;;;;;;;;5066905;28;20461;-69
2021/11/08 16:07:30;;;;;;;7.13;3.00;;;;;;;;;;5067617;28;20409;-68
2021/11/08 16:09:56;;;;;;;11.53;3.97;;;;;;;;;;5072563;28;20408;-68
2021/11/08 16:12:22;;;;;;;12.20;4.10;;;;;;;;;;5071979;28;20486;-67
2021/11/08 16:14:48;;;;;;;10.70;3.67;;;;;;;;;;5072473;28;20459;-67